createdAt,value
2023-09-30T00:01:37.202Z,1.05
2023-09-30T00:04:08.564Z,1.15
2023-09-30T00:06:36.588Z,1.20
2023-09-30T00:09:05.070Z,1.20
2023-09-30T00:11:32.932Z,1.00
2023-09-30T00:14:00.607Z,1.30
2023-09-30T00:16:28.858Z,1.20
2023-09-30T00:18:56.883Z,1.10
2023-09-30T00:21:26.763Z,1.05
2023-09-30T00:23:54.754Z,1.55
2023-09-30T00:26:23.517Z,1.55
2023-09-30T00:28:51.160Z,1.50
2023-09-30T00:31:19.302Z,1.55
2023-09-30T00:33:47.104Z,1.73
2023-09-30T00:36:14.939Z,1.90
2023-09-30T00:38:44.576Z,1.85
2023-09-30T00:41:12.267Z,2.70
2023-09-30T00:43:40.456Z,1.90
2023-09-30T00:46:18.458Z,2.00
2023-09-30T00:48:47.970Z,2.20
2023-09-30T00:51:16.160Z,2.25
2023-09-30T00:53:46.100Z,1.98
2023-09-30T00:56:14.591Z,2.05
2023-09-30T00:58:42.913Z,2.47
2023-09-30T01:01:11.660Z,2.72
2023-09-30T01:03:40.717Z,2.22
2023-09-30T01:06:09.542Z,3.00
2023-09-30T01:08:37.515Z,2.72
2023-09-30T01:11:07.189Z,2.85
2023-09-30T01:13:35.849Z,2.37
2023-09-30T01:16:06.495Z,2.90
2023-09-30T01:18:34.420Z,2.67
2023-09-30T01:21:06.103Z,2.88
2023-09-30T01:23:36.426Z,2.72
2023-09-30T01:26:06.546Z,2.85
2023-09-30T01:28:34.699Z,3.08
2023-09-30T01:31:02.665Z,3.00
2023-09-30T01:33:30.981Z,3.38
2023-09-30T01:35:58.783Z,3.08
2023-09-30T01:38:26.879Z,3.45
2023-09-30T01:40:58.771Z,3.15
2023-09-30T01:43:28.742Z,2.75
2023-09-30T01:45:56.525Z,2.90
2023-09-30T01:48:24.304Z,3.47
2023-09-30T01:50:52.582Z,3.58
2023-09-30T01:53:20.357Z,3.20
2023-09-30T01:55:49.393Z,3.10
2023-09-30T01:58:18.789Z,3.20
2023-09-30T02:00:47.134Z,3.20
2023-09-30T02:03:15.258Z,3.53
2023-09-30T02:05:43.588Z,3.05
2023-09-30T02:08:11.478Z,2.85
2023-09-30T02:10:39.476Z,4.03
2023-09-30T02:13:07.546Z,4.07
2023-09-30T02:15:37.499Z,3.20
2023-09-30T02:18:05.927Z,3.35
2023-09-30T02:20:33.997Z,3.70
2023-09-30T02:23:03.516Z,3.40
2023-09-30T02:25:33.397Z,2.90
2023-09-30T02:28:01.589Z,3.90
2023-09-30T02:30:29.763Z,3.45
2023-09-30T02:32:58.957Z,3.67
2023-09-30T02:35:27.143Z,3.45
2023-09-30T02:37:55.426Z,3.20
2023-09-30T02:40:25.858Z,2.88
2023-09-30T02:45:21.976Z,3.10
2023-09-30T02:47:50.260Z,3.63
2023-09-30T02:50:19.338Z,3.08
2023-09-30T02:52:47.541Z,3.60
2023-09-30T02:55:15.509Z,3.50
2023-09-30T02:57:44.668Z,3.60
2023-09-30T03:00:24.338Z,3.03
2023-09-30T03:02:53.743Z,3.30
2023-09-30T03:05:23.419Z,3.72
2023-09-30T03:07:52.939Z,3.23
2023-09-30T03:10:24.786Z,3.65
2023-09-30T03:12:53.417Z,3.38
2023-09-30T03:15:21.545Z,3.22
2023-09-30T03:17:53.322Z,3.45
2023-09-30T03:20:26.082Z,3.33
2023-09-30T03:22:54.786Z,3.83
2023-09-30T03:25:23.470Z,3.25
2023-09-30T03:27:52.422Z,3.78
2023-09-30T03:30:22.214Z,3.55
2023-09-30T03:32:50.463Z,3.83
2023-09-30T03:35:19.316Z,3.65
2023-09-30T03:37:49.884Z,3.55
2023-09-30T03:40:20.706Z,3.72
2023-09-30T03:42:51.305Z,4.20
2023-09-30T03:45:19.731Z,4.22
2023-09-30T03:47:49.666Z,3.70
2023-09-30T03:50:18.051Z,3.22
2023-09-30T03:52:49.043Z,3.63
2023-09-30T03:55:19.167Z,3.42
2023-09-30T03:57:49.793Z,4.38
2023-09-30T04:00:21.003Z,4.25
2023-09-30T04:02:52.410Z,3.70
2023-09-30T04:05:21.058Z,3.60
2023-09-30T04:07:50.659Z,3.47
2023-09-30T04:10:21.529Z,4.18
2023-09-30T04:12:50.091Z,3.50
2023-09-30T04:15:17.869Z,3.60
2023-09-30T04:17:46.136Z,3.92
2023-09-30T04:20:24.086Z,3.53
2023-09-30T04:22:58.996Z,3.63
2023-09-30T04:25:27.033Z,4.45
2023-09-30T04:27:55.513Z,3.72
2023-09-30T04:30:24.033Z,4.28
2023-09-30T04:32:52.532Z,3.60
2023-09-30T04:35:20.401Z,4.32
2023-09-30T04:37:48.338Z,4.35
2023-09-30T04:40:19.324Z,3.33
2023-09-30T04:42:48.101Z,3.83
2023-09-30T04:45:17.630Z,3.65
2023-09-30T04:47:47.215Z,3.97
2023-09-30T04:50:17.224Z,3.90
2023-09-30T04:52:46.749Z,3.60
2023-09-30T04:55:17.195Z,4.00
2023-09-30T04:57:49.040Z,4.20
2023-09-30T05:00:19.846Z,3.83
2023-09-30T05:05:16.821Z,3.55
2023-09-30T05:07:45.126Z,4.28
2023-09-30T05:10:16.920Z,4.30
2023-09-30T05:12:48.376Z,3.50
2023-09-30T05:15:18.015Z,4.35
2023-09-30T05:17:47.392Z,3.15
2023-09-30T05:20:18.402Z,3.70
2023-09-30T05:22:47.910Z,3.95
2023-09-30T05:25:17.997Z,3.97
2023-09-30T05:27:49.662Z,3.85
2023-09-30T05:30:17.689Z,4.45
2023-09-30T05:32:47.557Z,4.38
2023-09-30T05:35:19.004Z,3.75
2023-09-30T05:37:47.061Z,3.67
2023-09-30T05:40:24.581Z,4.43
2023-09-30T05:42:54.362Z,3.83
2023-09-30T05:45:22.859Z,3.97
2023-09-30T05:47:53.222Z,3.78
2023-09-30T05:50:26.144Z,4.95
2023-09-30T05:52:54.592Z,3.97
2023-09-30T05:55:23.631Z,3.90
2023-09-30T05:57:54.202Z,3.92
2023-09-30T06:00:30.176Z,4.30
2023-09-30T06:02:59.139Z,4.15
2023-09-30T06:05:28.872Z,4.40
2023-09-30T06:07:56.551Z,3.57
2023-09-30T06:10:24.789Z,4.07
2023-09-30T06:12:56.534Z,3.65
2023-09-30T06:15:27.993Z,4.22
2023-09-30T06:17:56.810Z,4.72
2023-09-30T06:20:28.614Z,3.80
2023-09-30T06:22:57.150Z,3.78
2023-09-30T06:25:26.432Z,3.70
2023-09-30T06:27:56.660Z,4.05
2023-09-30T06:30:31.802Z,4.18
2023-09-30T06:33:02.003Z,3.90
2023-09-30T06:35:31.828Z,3.97
2023-09-30T06:37:59.642Z,3.50
2023-09-30T06:40:27.471Z,3.65
2023-09-30T06:42:56.914Z,3.67
2023-09-30T06:45:24.799Z,4.38
2023-09-30T06:47:52.578Z,10.50
2023-09-30T06:50:22.920Z,4.22
2023-09-30T06:52:51.789Z,3.88
2023-09-30T06:55:19.765Z,3.92
2023-09-30T06:57:48.481Z,5.03
2023-09-30T07:00:17.997Z,3.67
2023-09-30T07:02:47.689Z,5.13
2023-09-30T07:05:17.314Z,4.45
2023-09-30T07:07:45.744Z,3.92
2023-09-30T07:10:13.991Z,4.13
2023-09-30T07:12:42.139Z,4.03
2023-09-30T07:15:10.900Z,3.47
2023-09-30T07:17:43.534Z,3.88
2023-09-30T07:20:13.390Z,3.75
2023-09-30T07:22:50.324Z,4.60
2023-09-30T07:25:23.889Z,3.67
2023-09-30T07:27:52.082Z,3.42
2023-09-30T07:30:20.059Z,3.38
2023-09-30T07:32:49.268Z,3.67
2023-09-30T07:35:17.293Z,3.85
2023-09-30T07:37:45.522Z,4.03
2023-09-30T07:40:14.456Z,4.00
2023-09-30T07:42:42.779Z,3.58
2023-09-30T07:45:12.272Z,4.22
2023-09-30T07:47:40.617Z,3.97
2023-09-30T07:50:13.516Z,3.75
2023-09-30T07:52:42.599Z,3.85
2023-09-30T07:55:11.536Z,3.50
2023-09-30T07:57:44.248Z,3.95
2023-09-30T08:00:16.636Z,4.72
2023-09-30T08:02:45.778Z,3.83
2023-09-30T08:05:15.304Z,4.40
2023-09-30T08:07:42.604Z,4.30
2023-09-30T08:10:14.966Z,4.47
2023-09-30T08:12:43.856Z,3.45
2023-09-30T08:15:13.311Z,3.88
2023-09-30T08:17:41.600Z,4.03
2023-09-30T08:20:11.127Z,4.07
2023-09-30T08:22:40.281Z,4.00
2023-09-30T08:25:09.716Z,4.20
2023-09-30T08:27:39.140Z,4.05
2023-09-30T08:30:08.601Z,3.38
2023-09-30T08:32:37.309Z,3.20
2023-09-30T08:35:05.897Z,3.47
2023-09-30T08:37:33.840Z,3.75
2023-09-30T08:40:05.118Z,3.72
2023-09-30T08:42:36.034Z,5.90
2023-09-30T08:45:07.109Z,3.60
2023-09-30T08:47:36.442Z,3.78
2023-09-30T08:50:08.270Z,3.50
2023-09-30T08:52:39.872Z,3.40
2023-09-30T08:55:11.235Z,3.85
2023-09-30T09:00:12.909Z,3.20
2023-09-30T09:02:41.346Z,3.47
2023-09-30T09:05:10.418Z,3.53
2023-09-30T09:07:38.157Z,3.30
2023-09-30T09:10:09.160Z,3.47
2023-09-30T09:12:39.972Z,3.47
2023-09-30T09:15:09.980Z,32.85
2023-09-30T09:17:44.505Z,8.63
2023-09-30T09:20:15.616Z,3.67
2023-09-30T09:22:44.328Z,3.58
2023-09-30T09:25:12.904Z,3.00
2023-09-30T09:27:42.010Z,3.03
2023-09-30T09:30:16.249Z,3.40
2023-09-30T09:33:00.201Z,2.70
2023-09-30T09:35:30.476Z,2.92
2023-09-30T09:37:59.758Z,3.08
2023-09-30T09:40:30.532Z,4.50
2023-09-30T09:43:01.045Z,3.35
2023-09-30T09:45:34.091Z,4.00
2023-09-30T09:48:02.510Z,3.83
2023-09-30T09:50:30.915Z,3.25
2023-09-30T09:53:00.194Z,3.25
2023-09-30T09:55:29.714Z,2.67
2023-09-30T09:58:00.134Z,2.78
2023-09-30T10:02:58.486Z,3.35
2023-09-30T10:05:26.859Z,2.50
2023-09-30T10:07:57.403Z,2.47
2023-09-30T10:12:54.541Z,2.85
2023-09-30T10:15:41.863Z,2.72
2023-09-30T10:18:15.422Z,2.60
2023-09-30T10:20:49.010Z,3.00
2023-09-30T10:23:27.501Z,2.80
2023-09-30T10:25:59.156Z,2.20
2023-09-30T10:28:42.385Z,2.45
2023-09-30T10:31:13.422Z,2.65
2023-09-30T10:34:17.818Z,2.67
2023-09-30T10:36:46.361Z,2.40
2023-09-30T10:39:15.392Z,3.20
2023-09-30T10:41:52.963Z,2.58
2023-09-30T10:44:35.039Z,3.47
2023-09-30T10:47:44.120Z,3.08
2023-09-30T10:50:52.480Z,2.13
2023-09-30T10:53:20.840Z,2.60
2023-09-30T10:55:52.507Z,1.90
2023-09-30T10:58:20.650Z,2.30
2023-09-30T11:00:55.956Z,2.03
2023-09-30T11:03:25.986Z,2.50
2023-09-30T11:06:11.648Z,2.20
2023-09-30T11:08:46.933Z,2.35
2023-09-30T11:11:15.570Z,2.25
2023-09-30T11:13:43.329Z,2.17
2023-09-30T11:16:11.661Z,2.80
2023-09-30T11:18:40.851Z,10.70
2023-09-30T11:21:12.123Z,3.15
2023-09-30T11:23:40.127Z,2.28
2023-09-30T11:26:07.896Z,4.60
2023-09-30T11:28:41.060Z,2.42
2023-09-30T11:31:15.668Z,2.47
2023-09-30T11:33:55.374Z,2.30
2023-09-30T11:36:23.910Z,2.05
2023-09-30T11:38:54.935Z,2.47
2023-09-30T11:41:23.802Z,2.42
2023-09-30T11:44:11.547Z,2.22
2023-09-30T11:46:53.774Z,2.00
2023-09-30T11:49:32.401Z,2.65
2023-09-30T11:52:02.583Z,2.60
2023-09-30T11:54:35.026Z,2.75
2023-09-30T11:57:04.604Z,2.25
2023-09-30T11:59:32.579Z,2.10
2023-09-30T12:02:13.756Z,2.08
2023-09-30T12:04:45.532Z,2.65
2023-09-30T12:07:14.270Z,2.40
2023-09-30T12:09:42.799Z,2.22
2023-09-30T12:12:11.848Z,2.55
2023-09-30T12:14:40.174Z,2.07
2023-09-30T12:17:13.695Z,2.50
2023-09-30T12:19:42.960Z,2.50
2023-09-30T12:22:13.409Z,1.92
2023-09-30T12:24:41.894Z,2.08
2023-09-30T12:27:10.123Z,3.00
2023-09-30T12:29:49.881Z,2.30
2023-09-30T12:32:17.699Z,2.25
2023-09-30T12:34:45.677Z,2.38
2023-09-30T12:37:14.998Z,2.38
2023-09-30T12:39:42.741Z,2.40
2023-09-30T12:42:13.341Z,2.17
2023-09-30T12:44:41.690Z,2.13
2023-09-30T12:47:10.806Z,2.60
2023-09-30T12:49:38.637Z,2.55
2023-09-30T12:52:06.998Z,2.20
2023-09-30T12:54:35.146Z,2.45
2023-09-30T12:57:03.029Z,2.15
2023-09-30T12:59:31.118Z,2.88
2023-09-30T13:01:58.905Z,2.17
2023-09-30T13:04:28.644Z,1.85
2023-09-30T13:06:56.474Z,3.17
2023-09-30T13:09:24.270Z,3.10
2023-09-30T13:11:52.345Z,2.35
2023-09-30T13:14:20.038Z,2.17
2023-09-30T13:16:48.187Z,2.17
2023-09-30T13:19:17.082Z,2.42
2023-09-30T13:21:46.316Z,2.53
2023-09-30T13:24:14.526Z,2.05
2023-09-30T13:26:42.436Z,2.60
2023-09-30T13:29:12.874Z,1.40
2023-09-30T13:31:41.202Z,2.15
2023-09-30T13:34:09.041Z,2.20
2023-09-30T13:36:37.439Z,1.92
2023-09-30T13:39:07.541Z,2.13
2023-09-30T13:41:37.032Z,1.60
2023-09-30T13:44:05.779Z,1.67
2023-09-30T13:46:33.570Z,1.52
2023-09-30T13:49:02.117Z,1.50
2023-09-30T13:51:29.988Z,1.88
2023-09-30T13:53:57.850Z,1.85
2023-09-30T13:56:28.637Z,1.42
2023-09-30T13:58:59.594Z,1.77
2023-09-30T14:01:28.237Z,1.77
2023-09-30T14:03:58.865Z,1.98
2023-09-30T14:08:54.942Z,1.70
2023-09-30T14:11:23.022Z,1.63
2023-09-30T14:13:52.027Z,1.70
2023-09-30T14:16:20.453Z,2.05
2023-09-30T14:18:49.973Z,1.40
2023-09-30T14:21:19.554Z,1.70
2023-09-30T14:23:47.785Z,1.47
2023-09-30T14:26:15.532Z,2.00
2023-09-30T14:28:43.920Z,1.77
2023-09-30T14:31:13.168Z,1.52
2023-09-30T14:33:41.117Z,1.50
2023-09-30T14:36:09.352Z,1.92
2023-09-30T14:38:37.716Z,1.40
2023-09-30T14:41:08.807Z,1.80
2023-09-30T14:43:37.173Z,1.80
2023-09-30T14:46:05.479Z,1.35
2023-09-30T14:48:34.737Z,1.60
2023-09-30T14:51:05.861Z,1.30
2023-09-30T14:53:33.676Z,1.88
2023-09-30T14:56:02.319Z,2.03
2023-09-30T14:58:30.136Z,1.80
2023-09-30T15:00:57.994Z,1.65
2023-09-30T15:03:26.289Z,1.48
2023-09-30T15:06:02.885Z,1.60
2023-09-30T15:08:31.095Z,2.00
2023-09-30T15:10:58.872Z,1.75
2023-09-30T15:13:26.659Z,1.98
2023-09-30T15:15:54.875Z,1.98
2023-09-30T15:18:22.693Z,2.53
2023-09-30T15:20:51.888Z,1.73
2023-09-30T15:23:21.350Z,2.20
2023-09-30T15:25:49.152Z,1.88
2023-09-30T15:28:17.330Z,1.65
2023-09-30T15:30:45.470Z,1.65
2023-09-30T15:33:13.242Z,2.15
2023-09-30T15:35:40.963Z,1.50
2023-09-30T15:38:09.307Z,2.03
2023-09-30T15:40:53.860Z,1.88
2023-09-30T15:43:22.278Z,2.10
2023-09-30T15:45:50.140Z,1.73
2023-09-30T15:48:17.820Z,1.55
2023-09-30T15:50:46.540Z,1.52
2023-09-30T15:53:14.426Z,2.10
2023-09-30T15:55:43.460Z,2.75
2023-09-30T15:58:11.673Z,2.97
2023-09-30T16:00:40.110Z,3.47
2023-09-30T16:03:09.411Z,4.03
2023-09-30T16:05:39.402Z,3.33
2023-09-30T16:08:08.769Z,2.55
2023-09-30T16:10:38.334Z,2.17
2023-09-30T16:13:10.027Z,2.10
2023-09-30T16:15:40.958Z,1.33
2023-09-30T16:18:09.017Z,1.80
2023-09-30T16:20:37.257Z,2.20
2023-09-30T16:23:05.450Z,1.70
2023-09-30T16:25:33.371Z,2.20
2023-09-30T16:28:01.718Z,2.00
2023-09-30T16:30:31.246Z,1.83
2023-09-30T16:33:00.086Z,2.00
2023-09-30T16:35:27.920Z,1.90
2023-09-30T16:37:55.655Z,1.90
2023-09-30T16:40:23.917Z,1.55
2023-09-30T16:42:51.669Z,2.10
2023-09-30T16:45:19.439Z,2.22
2023-09-30T16:47:49.122Z,2.55
2023-09-30T16:50:16.900Z,3.17
2023-09-30T16:52:44.668Z,3.92
2023-09-30T16:55:13.106Z,3.83
2023-09-30T16:57:41.982Z,3.05
2023-09-30T17:00:12.091Z,2.92
2023-09-30T17:02:40.255Z,2.60
2023-09-30T17:05:10.289Z,2.92
2023-09-30T17:07:38.010Z,2.45
2023-09-30T17:10:07.305Z,2.83
2023-09-30T17:12:35.303Z,3.88
2023-09-30T17:15:03.919Z,16.60
2023-09-30T17:17:32.651Z,4.30
2023-09-30T17:20:00.325Z,3.47
2023-09-30T17:22:29.371Z,4.22
2023-09-30T17:24:57.747Z,4.53
2023-09-30T17:27:25.587Z,4.50
2023-09-30T17:29:53.266Z,4.80
2023-09-30T17:32:22.617Z,4.82
2023-09-30T17:34:50.382Z,4.00
2023-09-30T17:37:18.880Z,3.70
2023-09-30T17:39:48.168Z,3.50
2023-09-30T17:42:16.133Z,3.80
2023-09-30T17:44:44.142Z,4.00
2023-09-30T17:47:11.869Z,4.18
2023-09-30T17:49:40.300Z,3.63
2023-09-30T17:52:08.123Z,4.00
2023-09-30T17:54:36.023Z,3.65
2023-09-30T17:57:05.602Z,3.83
2023-09-30T17:59:33.367Z,4.35
2023-09-30T18:02:01.141Z,4.43
2023-09-30T18:04:29.273Z,4.47
2023-09-30T18:06:58.000Z,4.38
2023-09-30T18:09:26.454Z,5.03
2023-09-30T18:11:54.266Z,4.65
2023-09-30T18:14:23.648Z,5.00
2023-09-30T18:16:51.408Z,6.57
2023-09-30T18:19:21.858Z,6.47
2023-09-30T18:24:17.416Z,5.18
2023-09-30T18:26:45.423Z,4.90
2023-09-30T18:29:13.167Z,4.60
2023-09-30T18:31:42.642Z,4.97
2023-09-30T18:34:10.510Z,5.35
2023-09-30T18:36:38.424Z,5.63
2023-09-30T18:39:23.023Z,4.90
2023-09-30T18:41:53.316Z,5.30
2023-09-30T18:44:21.499Z,5.10
2023-09-30T18:46:52.348Z,4.57
2023-09-30T18:49:20.803Z,4.75
2023-09-30T18:51:49.030Z,4.95
2023-09-30T18:54:17.131Z,4.93
2023-09-30T18:56:45.195Z,5.20
2023-09-30T18:59:12.975Z,4.45
2023-09-30T19:01:40.752Z,4.20
2023-09-30T19:04:10.214Z,4.80
2023-09-30T19:06:37.946Z,4.55
2023-09-30T19:09:08.299Z,4.05
2023-09-30T19:11:36.392Z,4.78
2023-09-30T19:14:07.626Z,4.47
2023-09-30T19:16:36.117Z,4.40
2023-09-30T19:19:03.918Z,5.18
2023-09-30T19:21:35.151Z,5.57
2023-09-30T19:24:03.261Z,4.97
2023-09-30T19:26:31.347Z,5.43
2023-09-30T19:29:02.213Z,4.95
2023-09-30T19:31:30.300Z,5.75
2023-09-30T19:33:58.848Z,4.75
2023-09-30T19:36:26.715Z,5.55
2023-09-30T19:38:56.294Z,4.68
2023-09-30T19:41:24.038Z,4.85
2023-09-30T19:43:51.711Z,5.20
2023-09-30T19:46:19.942Z,5.78
2023-09-30T19:48:47.814Z,5.35
2023-09-30T19:51:24.823Z,5.90
2023-09-30T19:53:52.737Z,5.72
2023-09-30T19:56:21.828Z,6.55
2023-09-30T19:58:49.859Z,5.57
2023-09-30T20:01:20.735Z,5.88
2023-09-30T20:03:49.526Z,5.30
2023-09-30T20:06:19.120Z,6.30
2023-09-30T20:08:48.001Z,5.25
2023-09-30T20:11:21.967Z,5.97
2023-09-30T20:13:49.715Z,5.65
2023-09-30T20:16:17.855Z,5.40
2023-09-30T20:18:46.911Z,4.93
2023-09-30T20:21:15.126Z,5.63
2023-09-30T20:23:43.309Z,4.63
2023-09-30T20:26:14.247Z,5.03
2023-09-30T20:28:43.742Z,6.22
2023-09-30T20:31:11.704Z,6.05
2023-09-30T20:33:40.127Z,5.47
2023-09-30T20:36:08.369Z,5.07
2023-09-30T20:38:36.219Z,5.38
2023-09-30T20:41:08.701Z,5.50
2023-09-30T20:43:36.453Z,5.90
2023-09-30T20:46:06.379Z,6.32
2023-09-30T20:48:34.953Z,6.00
2023-09-30T20:51:05.212Z,6.15
2023-09-30T20:53:34.926Z,5.07
2023-09-30T20:56:03.284Z,6.13
2023-09-30T20:58:31.625Z,5.20
2023-09-30T21:01:00.625Z,6.15
2023-09-30T21:03:29.782Z,5.57
2023-09-30T21:05:57.849Z,5.55
2023-09-30T21:08:25.520Z,6.35
2023-09-30T21:10:53.698Z,6.78
2023-09-30T21:13:22.294Z,8.50
2023-09-30T21:15:51.670Z,9.05
2023-09-30T21:18:19.455Z,8.18
2023-09-30T21:20:48.476Z,8.38
2023-09-30T21:23:16.642Z,7.70
2023-09-30T21:25:44.354Z,7.60
2023-09-30T21:28:12.688Z,8.50
2023-09-30T21:30:40.822Z,8.02
2023-09-30T21:33:09.261Z,8.20
2023-09-30T21:35:37.218Z,10.05
2023-09-30T21:38:06.926Z,8.05
2023-09-30T21:40:35.024Z,7.43
2023-09-30T21:43:02.857Z,7.50
2023-09-30T21:45:31.290Z,7.57
2023-09-30T21:47:59.149Z,7.20
2023-09-30T21:50:26.958Z,7.47
2023-09-30T21:52:54.935Z,7.60
2023-09-30T21:55:24.078Z,7.32
2023-09-30T21:57:52.171Z,7.70
2023-09-30T22:00:28.448Z,7.25
2023-09-30T22:02:56.625Z,6.93
2023-09-30T22:05:25.359Z,6.88
2023-09-30T22:07:53.068Z,6.68
2023-09-30T22:10:21.155Z,6.28
2023-09-30T22:12:50.443Z,7.15
2023-09-30T22:15:18.555Z,7.35
2023-09-30T22:17:47.039Z,6.85
2023-09-30T22:20:14.890Z,6.97
2023-09-30T22:22:43.569Z,7.45
2023-09-30T22:25:12.210Z,6.85
2023-09-30T22:27:41.278Z,6.43
2023-09-30T22:30:11.411Z,6.50
2023-09-30T22:32:39.132Z,6.13
2023-09-30T22:35:09.167Z,7.05
2023-09-30T22:37:37.113Z,6.60
2023-09-30T22:40:06.638Z,6.60
2023-09-30T22:42:34.647Z,7.20
2023-09-30T22:45:02.489Z,7.55
2023-09-30T22:47:44.213Z,7.10
2023-09-30T22:50:13.047Z,7.30
2023-09-30T22:52:41.500Z,7.90
2023-09-30T22:55:14.517Z,7.40
2023-09-30T22:57:43.179Z,7.07
2023-09-30T23:00:12.683Z,8.15
2023-09-30T23:02:42.963Z,7.38
2023-09-30T23:05:14.538Z,7.05
2023-09-30T23:07:45.168Z,6.82
2023-09-30T23:10:15.381Z,7.57
2023-09-30T23:12:43.859Z,6.90
2023-09-30T23:15:14.688Z,6.88
2023-09-30T23:17:46.398Z,6.55
2023-09-30T23:20:21.377Z,7.13
2023-09-30T23:22:53.036Z,5.95
2023-09-30T23:25:27.355Z,6.47
2023-09-30T23:27:56.527Z,7.35
2023-09-30T23:30:26.011Z,7.47
2023-09-30T23:32:58.909Z,7.70
2023-09-30T23:35:28.284Z,8.00
2023-09-30T23:37:59.150Z,7.35
2023-09-30T23:40:27.127Z,7.47
2023-09-30T23:42:55.658Z,6.50
2023-09-30T23:45:27.727Z,6.93
2023-09-30T23:47:57.161Z,7.07
2023-09-30T23:50:27.052Z,6.90
2023-09-30T23:52:58.744Z,6.57
2023-09-30T23:55:29.487Z,6.45
2023-09-30T23:57:58.048Z,7.05
